ACURITE STATION HISTORICAL DATA FROM WUNDERGROUND.COM FOR HIGH PARK VILLAGE,TORONTO,ON,CANADA
 
Daily Summary for August 24, 2019 Units:  Metric    English   Both
Next Day »
Daily Weekly Monthly Yearly Custom
  Current: High: Low: Average:
Temperature: 19.8 °C 27.1 °C 13 °C 18.8 °C
Dew Point: 12.3 °C 12.8 °C 8.1 °C 10.4 °C
Humidity: 62% 77% 40% 59%
Wind Speed: 0km/h 12.9km/h 0km/h 3.5km/h
Wind Gust: 0km/h 12.9km/h - -
WindCalm - - SSW
Pressure: 1022.2 hPa 1023.2 hPa 1019.9 hPa -
Precipitation: 0 mm      
Historical Graphs
 
 
Tabular Data for August 24, 2019
Time Temperature Dew Point Pressure Wind Wind Speed Wind Gust Humidity Rainfall Rate (Hourly)
00:00 16.8 °C 10.4 °C 1019.9 hPa NNW 6.4 km/h 9.7 km/h 66% 0 mm
00:05 16.8 °C 10.4 °C 1019.9 hPa NW 4.8 km/h 6.4 km/h 66% 0 mm
00:10 16.8 °C 10.4 °C 1019.9 hPa NE 6.4 km/h 6.4 km/h 66% 0 mm
00:15 16.7 °C 10.3 °C 1019.9 hPa NW 6.4 km/h 6.4 km/h 66% 0 mm
00:20 16.8 °C 10.2 °C 1019.9 hPa NNW 3.2 km/h 3.2 km/h 65% 0 mm
00:25 16.8 °C 10 °C 1019.9 hPa NW 8 km/h 8 km/h 64% 0 mm
00:30 16.8 °C 10 °C 1019.9 hPa West 1.6 km/h 9.7 km/h 64% 0 mm
00:36 16.8 °C 9.7 °C 1019.9 hPa Calm     63% 0 mm
00:41 16.8 °C 9.7 °C 1020.2 hPa NW 1.6 km/h 1.6 km/h 63% 0 mm
00:45 16.9 °C 9.1 °C 1020.2 hPa NE 1.6 km/h 1.6 km/h 60% 0 mm
00:50 16.9 °C 9.1 °C 1020.2 hPa Calm     60% 0 mm
00:55 16.9 °C 8.9 °C 1020.2 hPa SW 1.6 km/h 1.6 km/h 59% 0 mm
01:00 16.9 °C 8.8 °C 1020.2 hPa North 1.6 km/h 1.6 km/h 59% 0 mm
01:07 16.8 °C 8.8 °C 1020.2 hPa Calm   3.2 km/h 59% 0 mm
01:11 16.8 °C 8.4 °C 1020.2 hPa Calm   3.2 km/h 58% 0 mm
01:15 16.8 °C 8.4 °C 1020.5 hPa SSW 3.2 km/h 3.2 km/h 58% 0 mm
01:20 16.6 °C 8.3 °C 1020.2 hPa NNW 1.6 km/h 1.6 km/h 58% 0 mm
01:30 16.6 °C 8.3 °C 1020.2 hPa Calm     58% 0 mm
01:40 16.6 °C 8.3 °C 1020.2 hPa Calm     58% 0 mm
01:46 16.4 °C 8.2 °C 1020.2 hPa Calm     58% 0 mm
01:52 16.4 °C 8.2 °C 1020.2 hPa Calm     58% 0 mm
02:00 16.3 °C 8.1 °C 1020.5 hPa Calm     58% 0 mm
02:11 16.2 °C 8.2 °C 1020.5 hPa NE 3.2 km/h 3.2 km/h 59% 0 mm
02:16 16.2 °C 8.2 °C 1020.5 hPa NW 1.6 km/h 1.6 km/h 59% 0 mm
02:23 15.9 °C 8.9 °C 1020.5 hPa NW 6.4 km/h 6.4 km/h 63% 0 mm
02:25 15.9 °C 8.9 °C 1020.5 hPa NW 4.8 km/h 4.8 km/h 63% 0 mm
02:32 15.9 °C 8.9 °C 1020.5 hPa NNW 6.4 km/h 6.4 km/h 63% 0 mm
02:35 15.9 °C 8.9 °C 1020.5 hPa North 4.8 km/h 4.8 km/h 63% 0 mm
02:41 15.4 °C 8.7 °C 1020.5 hPa North 6.4 km/h 6.4 km/h 64% 0 mm
02:45 15.4 °C 8.7 °C 1020.5 hPa NNE 6.4 km/h 6.4 km/h 64% 0 mm
02:50 15.4 °C 8.4 °C 1020.5 hPa NW 6.4 km/h 6.4 km/h 63% 0 mm
02:56 15.3 °C 8.7 °C 1020.5 hPa WNW 4.8 km/h 4.8 km/h 65% 0 mm
03:13 14.9 °C 8.9 °C 1020.5 hPa NW 4.8 km/h 4.8 km/h 67% 0 mm
03:15 14.9 °C 8.9 °C 1020.9 hPa NW 6.4 km/h 6.4 km/h 67% 0 mm
03:21 14.9 °C 8.8 °C 1020.9 hPa North 8 km/h 8 km/h 67% 0 mm
03:27 14.8 °C 9.2 °C 1020.9 hPa North 6.4 km/h 6.4 km/h 69% 0 mm
03:30 14.6 °C 9 °C 1020.9 hPa NW 6.4 km/h 8 km/h 69% 0 mm
03:35 14.6 °C 9.2 °C 1020.9 hPa NW 6.4 km/h 9.7 km/h 70% 0 mm
03:45 14.4 °C 9 °C 1020.9 hPa NW 6.4 km/h 6.4 km/h 70% 0 mm
03:51 14.3 °C 9.2 °C 1020.9 hPa NW 6.4 km/h 6.4 km/h 71% 0 mm
03:55 14.1 °C 9.1 °C 1020.9 hPa NNW 6.4 km/h 9.7 km/h 72% 0 mm
04:00 14.1 °C 9.3 °C 1021.2 hPa NNE 8 km/h 11.3 km/h 73% 0 mm
04:05 13.9 °C 9.1 °C 1021.2 hPa NW 4.8 km/h 6.4 km/h 73% 0 mm
04:10 13.9 °C 9.1 °C 1021.2 hPa NW 6.4 km/h 6.4 km/h 73% 0 mm
04:15 13.8 °C 9.2 °C 1021.2 hPa WNW 11.3 km/h 11.3 km/h 74% 0 mm
04:20 13.7 °C 9.1 °C 1021.2 hPa North 4.8 km/h 9.7 km/h 74% 0 mm
04:25 13.7 °C 9.3 °C 1021.2 hPa NNW 9.7 km/h 11.3 km/h 75% 0 mm
04:30 13.6 °C 9.2 °C 1021.2 hPa NW 4.8 km/h 9.7 km/h 75% 0 mm
04:35 13.5 °C 9.2 °C 1021.2 hPa NNW 9.7 km/h 11.3 km/h 75% 0 mm
04:40 13.4 °C 9.1 °C 1021.2 hPa NW 9.7 km/h 9.7 km/h 75% 0 mm
04:45 13.3 °C 9 °C 1021.2 hPa NW 9.7 km/h 11.3 km/h 75% 0 mm
04:50 13.3 °C 9 °C 1021.2 hPa NW 9.7 km/h 11.3 km/h 75% 0 mm
04:55 13.3 °C 9.1 °C 1021.2 hPa NNE 8 km/h 9.7 km/h 76% 0 mm
05:00 13.3 °C 9 °C 1021.2 hPa NW 9.7 km/h 12.9 km/h 75% 0 mm
05:05 13.3 °C 8.9 °C 1021.2 hPa NNW 8 km/h 11.3 km/h 75% 0 mm
05:10 13.3 °C 9 °C 1021.2 hPa NW 6.4 km/h 8 km/h 75% 0 mm
05:15 13.3 °C 9 °C 1021.2 hPa SW 6.4 km/h 8 km/h 75% 0 mm
05:20 13.3 °C 9 °C 1021.2 hPa NNE 6.4 km/h 9.7 km/h 75% 0 mm
05:25 13.3 °C 8.9 °C 1021.2 hPa North 9.7 km/h 9.7 km/h 75% 0 mm
05:30 13.3 °C 9 °C 1021.6 hPa NNW 12.9 km/h 12.9 km/h 75% 0 mm
05:35 13.3 °C 9 °C 1021.6 hPa NW 8 km/h 8 km/h 75% 0 mm
05:40 13.3 °C 9 °C 1021.6 hPa North 9.7 km/h 9.7 km/h 75% 0 mm
05:45 13.3 °C 9 °C 1021.6 hPa NW 4.8 km/h 9.7 km/h 75% 0 mm
05:50 13.3 °C 8.9 °C 1021.6 hPa NW 9.7 km/h 11.3 km/h 75% 0 mm
05:55 13.3 °C 8.9 °C 1021.6 hPa NNW 8 km/h 9.7 km/h 75% 0 mm
06:00 13.3 °C 9 °C 1021.9 hPa North 6.4 km/h 9.7 km/h 75% 0 mm
06:05 13.4 °C 9.1 °C 1021.9 hPa WNW 6.4 km/h 8 km/h 75% 0 mm
06:10 13.5 °C 8.9 °C 1021.9 hPa NW 6.4 km/h 9.7 km/h 74% 0 mm
06:15 13.4 °C 8.8 °C 1021.9 hPa NW 4.8 km/h 8 km/h 74% 0 mm
06:20 13.4 °C 9.1 °C 1021.9 hPa NW 6.4 km/h 9.7 km/h 75% 0 mm
06:25 13.3 °C 8.9 °C 1022.2 hPa North 8 km/h 8 km/h 75% 0 mm
06:30 13.3 °C 9 °C 1022.2 hPa NNE 4.8 km/h 6.4 km/h 75% 0 mm
06:35 13.3 °C 9 °C 1022.2 hPa WNW 4.8 km/h 6.4 km/h 75% 0 mm
06:40 13.3 °C 9 °C 1022.2 hPa NE 4.8 km/h 6.4 km/h 75% 0 mm
06:45 13.2 °C 9.1 °C 1022.2 hPa NW 3.2 km/h 6.4 km/h 76% 0 mm
06:50 13.1 °C 9 °C 1022.2 hPa NNW 6.4 km/h 6.4 km/h 76% 0 mm
06:55 13.1 °C 9.1 °C 1022.2 hPa West 6.4 km/h 6.4 km/h 77% 0 mm
07:00 13.1 °C 9.1 °C 1022.2 hPa NE 8 km/h 8 km/h 77% 0 mm
07:05 13.1 °C 9.1 °C 1022.6 hPa NE 4.8 km/h 8 km/h 77% 0 mm
07:10 13 °C 9.1 °C 1022.6 hPa NW 4.8 km/h 8 km/h 77% 0 mm
07:15 13.1 °C 9.1 °C 1022.6 hPa NNW 3.2 km/h 4.8 km/h 77% 0 mm
07:20 13.1 °C 9.2 °C 1022.6 hPa NE 4.8 km/h 6.4 km/h 77% 0 mm
07:25 13.2 °C 9.2 °C 1022.6 hPa NNE 3.2 km/h 6.4 km/h 77% 0 mm
07:30 13.3 °C 9.3 °C 1022.6 hPa NNW 4.8 km/h 4.8 km/h 77% 0 mm
07:35 13.4 °C 9.4 °C 1022.6 hPa NW 4.8 km/h 4.8 km/h 77% 0 mm
07:40 13.5 °C 9.3 °C 1022.6 hPa NNW 3.2 km/h 6.4 km/h 76% 0 mm
07:45 13.6 °C 9.4 °C 1022.9 hPa North 3.2 km/h 3.2 km/h 76% 0 mm
07:50 13.9 °C 9.6 °C 1022.9 hPa NNW 4.8 km/h 6.4 km/h 75% 0 mm
07:55 13.9 °C 9.8 °C 1022.9 hPa WNW 3.2 km/h 4.8 km/h 76% 0 mm
08:00 14.1 °C 9.7 °C 1022.9 hPa North 3.2 km/h 4.8 km/h 75% 0 mm
08:05 14.4 °C 10 °C 1023.2 hPa NNW 3.2 km/h 3.2 km/h 75% 0 mm
08:10 14.7 °C 10.1 °C 1023.2 hPa NNE 1.6 km/h 4.8 km/h 74% 0 mm
08:15 15 °C 10.2 °C 1023.2 hPa NNW 1.6 km/h 4.8 km/h 73% 0 mm
08:20 15.3 °C 10.3 °C 1023.2 hPa NNW 6.4 km/h 6.4 km/h 72% 0 mm
08:25 15.5 °C 10.3 °C 1023.2 hPa NW 4.8 km/h 4.8 km/h 71% 0 mm
08:30 15.7 °C 10.3 °C 1023.2 hPa ENE 3.2 km/h 3.2 km/h 70% 0 mm
08:35 15.9 °C 10.3 °C 1023.2 hPa Calm   1.6 km/h 69% 0 mm
08:42 16.1 °C 10.4 °C 1023.2 hPa East 1.6 km/h 1.6 km/h 69% 0 mm
08:45 16.4 °C 10.4 °C 1023.2 hPa NNE 1.6 km/h 6.4 km/h 68% 0 mm
08:59 16.5 °C 10.6 °C 1023.2 hPa Calm     68% 0 mm
09:01 16.5 °C 10.6 °C 1023.2 hPa East 1.6 km/h 1.6 km/h 68% 0 mm
09:05 16.5 °C 10.6 °C 1023.2 hPa WNW 3.2 km/h 3.2 km/h 68% 0 mm
09:10 17.2 °C 10.3 °C 1023.2 hPa Calm     64% 0 mm
09:16 17.3 °C 10.2 °C 1023.2 hPa Calm     63% 0 mm
09:20 17.4 °C 10.1 °C 1023.2 hPa Calm     62% 0 mm
09:25 17.6 °C 10.2 °C 1023.2 hPa Calm     62% 0 mm
09:30 17.7 °C 10.1 °C 1023.2 hPa Calm   1.6 km/h 61% 0 mm
09:42 17.7 °C 9.8 °C 1023.2 hPa NNW 1.6 km/h 1.6 km/h 60% 0 mm
09:50 17.7 °C 9.8 °C 1023.2 hPa SSE 1.6 km/h 1.6 km/h 60% 0 mm
09:55 18.2 °C 9.6 °C 1023.2 hPa Calm     57% 0 mm
10:00 18.3 °C 9.7 °C 1023.2 hPa SE 1.6 km/h 1.6 km/h 57% 0 mm
10:05 18.5 °C 9.8 °C 1023.2 hPa North 1.6 km/h 1.6 km/h 57% 0 mm
10:10 18.6 °C 9.3 °C 1023.2 hPa NW 3.2 km/h 3.2 km/h 55% 0 mm
10:15 18.6 °C 9.7 °C 1023.2 hPa Calm     56% 0 mm
10:20 18.7 °C 9.4 °C 1023.2 hPa Calm     55% 0 mm
10:27 18.9 °C 9.7 °C 1023.2 hPa NNE 1.6 km/h 1.6 km/h 55% 0 mm
10:31 18.9 °C 9.7 °C 1023.2 hPa Calm     55% 0 mm
10:39 18.9 °C 9.4 °C 1023.2 hPa Calm     54% 0 mm
10:40 19.1 °C 9.6 °C 1023.2 hPa Calm   1.6 km/h 54% 0 mm
10:56 19.3 °C 9.7 °C 1023.2 hPa East 1.6 km/h 1.6 km/h 54% 0 mm
11:03 19.3 °C 9.7 °C 1023.2 hPa Calm     54% 0 mm
11:05 19.8 °C 9.4 °C 1023.2 hPa Calm     51% 0 mm
11:12 20 °C 9.3 °C 1023.2 hPa NNE 3.2 km/h 3.2 km/h 50% 0 mm
11:15 19.9 °C 9.5 °C 1023.2 hPa Calm     51% 0 mm
11:20 20.1 °C 9.7 °C 1023.2 hPa Calm     51% 0 mm
11:25 20.3 °C 9.8 °C 1023.2 hPa Calm   1.6 km/h 51% 0 mm
11:30 20.4 °C 9.4 °C 1022.9 hPa Calm   1.6 km/h 49% 0 mm
11:35 20.5 °C 9.7 °C 1022.9 hPa Calm   1.6 km/h 50% 0 mm
11:40 20.4 °C 9.7 °C 1022.9 hPa Calm     50% 0 mm
11:45 20.3 °C 9.8 °C 1022.9 hPa SE 1.6 km/h 4.8 km/h 51% 0 mm
11:50 20.2 °C 10 °C 1022.9 hPa SW 1.6 km/h 3.2 km/h 52% 0 mm
11:55 19.9 °C 10 °C 1022.9 hPa SSE 4.8 km/h 8 km/h 53% 0 mm
12:00 19.4 °C 9.9 °C 1022.6 hPa ESE 6.4 km/h 8 km/h 54% 0 mm
12:05 19.4 °C 9.8 °C 1022.9 hPa SE 4.8 km/h 6.4 km/h 54% 0 mm
12:10 19.4 °C 10.4 °C 1022.6 hPa SE 6.4 km/h 6.4 km/h 56% 0 mm
12:15 19.3 °C 10.6 °C 1022.9 hPa SSE 6.4 km/h 6.4 km/h 57% 0 mm
12:20 19.1 °C 10.7 °C 1022.9 hPa SSW 4.8 km/h 6.4 km/h 58% 0 mm
12:25 19.2 °C 11.3 °C 1022.6 hPa SE 1.6 km/h 6.4 km/h 60% 0 mm
12:30 19.3 °C 11.1 °C 1022.6 hPa SSE 4.8 km/h 6.4 km/h 59% 0 mm
12:35 19.2 °C 10.8 °C 1022.6 hPa SSE 6.4 km/h 8 km/h 58% 0 mm
12:40 19.2 °C 10.7 °C 1022.6 hPa SE 6.4 km/h 6.4 km/h 58% 0 mm
12:45 19.2 °C 11.3 °C 1022.6 hPa WSW 4.8 km/h 6.4 km/h 60% 0 mm
12:50 19.3 °C 11.1 °C 1022.6 hPa SSW 6.4 km/h 6.4 km/h 59% 0 mm
12:55 19.6 °C 11.3 °C 1022.6 hPa SSE 4.8 km/h 9.7 km/h 59% 0 mm
13:00 19.8 °C 11.1 °C 1022.6 hPa East 3.2 km/h 3.2 km/h 57% 0 mm
13:05 19.7 °C 10.9 °C 1022.2 hPa South 6.4 km/h 6.4 km/h 57% 0 mm
13:10 19.5 °C 11.3 °C 1022.2 hPa South 6.4 km/h 8 km/h 59% 0 mm
13:15 19.5 °C 11.5 °C 1022.2 hPa SSW 4.8 km/h 4.8 km/h 60% 0 mm
13:20 19.4 °C 11.4 °C 1022.2 hPa ESE 6.4 km/h 8 km/h 60% 0 mm
13:25 19.4 °C 11.2 °C 1022.6 hPa South 9.7 km/h 9.7 km/h 59% 0 mm
13:30 19.8 °C 11.3 °C 1022.2 hPa SSE 4.8 km/h 6.4 km/h 58% 0 mm
13:35 20.1 °C 11.8 °C 1022.2 hPa WSW 4.8 km/h 6.4 km/h 59% 0 mm
13:40 20.2 °C 12.2 °C 1022.2 hPa SSE 4.8 km/h 8 km/h 60% 0 mm
13:45 19.7 °C 12 °C 1022.2 hPa SE 6.4 km/h 6.4 km/h 61% 0 mm
13:50 20.4 °C 11.9 °C 1022.2 hPa ESE 3.2 km/h 6.4 km/h 58% 0 mm
13:55 20.7 °C 11.6 °C 1022.2 hPa SE 4.8 km/h 4.8 km/h 56% 0 mm
14:00 21 °C 11.9 °C 1022.6 hPa Calm   9.7 km/h 56% 0 mm
14:05 22.2 °C 12.1 °C 1022.2 hPa West 1.6 km/h 1.6 km/h 53% 0 mm
14:10 22.4 °C 11.7 °C 1022.2 hPa Calm   4.8 km/h 51% 0 mm
14:15 22.4 °C 11.7 °C 1022.2 hPa SSW 3.2 km/h 3.2 km/h 51% 0 mm
14:20 22.4 °C 11.7 °C 1022.2 hPa Calm   3.2 km/h 51% 0 mm
14:25 22.6 °C 11.7 °C 1022.2 hPa NNW 1.6 km/h 1.6 km/h 50% 0 mm
14:30 22.8 °C 12.2 °C 1022.6 hPa Calm   4.8 km/h 51% 0 mm
14:35 22.3 °C 12 °C 1022.6 hPa SSW 3.2 km/h 4.8 km/h 52% 0 mm
14:40 21.6 °C 12.2 °C 1022.6 hPa South 4.8 km/h 8 km/h 55% 0 mm
14:45 22.6 °C 12.2 °C 1022.6 hPa SSE 3.2 km/h 6.4 km/h 52% 0 mm
14:50 22.4 °C 12.1 °C 1022.2 hPa South 3.2 km/h 4.8 km/h 52% 0 mm
14:55 22.7 °C 11.4 °C 1022.2 hPa Calm   3.2 km/h 49% 0 mm
15:02 22.3 °C 11.1 °C 1022.2 hPa SSW 3.2 km/h 3.2 km/h 49% 0 mm
15:06 22.9 °C 11.6 °C 1022.2 hPa SSW 1.6 km/h 4.8 km/h 49% 0 mm
15:10 22.7 °C 11.7 °C 1022.2 hPa WSW 3.2 km/h 3.2 km/h 50% 0 mm
15:21 21.8 °C 11.5 °C 1022.2 hPa WSW 8 km/h 8 km/h 52% 0 mm
15:26 21.9 °C 11.3 °C 1022.2 hPa WSW 4.8 km/h 4.8 km/h 51% 0 mm
15:32 21.9 °C 11.3 °C 1022.2 hPa SSE 1.6 km/h 1.6 km/h 51% 0 mm
15:35 22.7 °C 10.2 °C 1022.2 hPa WNW 3.2 km/h 3.2 km/h 45% 0 mm
15:40 23.9 °C 11.3 °C 1022.2 hPa Calm   1.6 km/h 45% 0 mm
15:46 24.8 °C 11.3 °C 1022.2 hPa WSW 4.8 km/h 4.8 km/h 43% 0 mm
15:53 24.8 °C 11.3 °C 1022.2 hPa South 3.2 km/h 3.2 km/h 43% 0 mm
15:56 23.5 °C 11.2 °C 1022.2 hPa South 4.8 km/h 4.8 km/h 46% 0 mm
16:05 23.5 °C 11.2 °C 1022.2 hPa South 1.6 km/h 1.6 km/h 46% 0 mm
16:10 24.9 °C 12.1 °C 1022.2 hPa SW 1.6 km/h 3.2 km/h 45% 0 mm
16:15 24.4 °C 11.7 °C 1022.2 hPa ESE 4.8 km/h 4.8 km/h 45% 0 mm
16:20 24.1 °C 12.1 °C 1021.9 hPa SSW 3.2 km/h 6.4 km/h 47% 0 mm
16:25 23.9 °C 11.9 °C 1021.9 hPa SE 4.8 km/h 6.4 km/h 47% 0 mm
16:30 24.6 °C 12.2 °C 1021.9 hPa SSE 6.4 km/h 6.4 km/h 46% 0 mm
16:35 25.1 °C 12.3 °C 1021.9 hPa East 4.8 km/h 4.8 km/h 45% 0 mm
16:40 25.7 °C 12.6 °C 1021.6 hPa Calm   3.2 km/h 44% 0 mm
16:45 25.8 °C 11.5 °C 1021.9 hPa WNW 1.6 km/h 3.2 km/h 41% 0 mm
16:50 25.6 °C 12.4 °C 1021.9 hPa ESE 4.8 km/h 4.8 km/h 44% 0 mm
16:55 26 °C 12.1 °C 1021.9 hPa SSW 3.2 km/h 6.4 km/h 42% 0 mm
17:00 26.6 °C 12.3 °C 1021.9 hPa WSW 1.6 km/h 3.2 km/h 41% 0 mm
17:05 25.6 °C 12.4 °C 1021.9 hPa East 4.8 km/h 4.8 km/h 44% 0 mm
17:10 25.6 °C 11.7 °C 1021.9 hPa South 4.8 km/h 4.8 km/h 42% 0 mm
17:15 27.1 °C 12.3 °C 1021.9 hPa Calm   1.6 km/h 40% 0 mm
17:20 25.7 °C 11.4 °C 1021.9 hPa SSE 4.8 km/h 4.8 km/h 41% 0 mm
17:25 25.8 °C 11.5 °C 1021.9 hPa East 3.2 km/h 3.2 km/h 41% 0 mm
17:30 26.2 °C 12.6 °C 1021.9 hPa South 1.6 km/h 1.6 km/h 43% 0 mm
17:35 25.8 °C 12.3 °C 1021.9 hPa SW 4.8 km/h 4.8 km/h 43% 0 mm
17:40 26.1 °C 12.8 °C 1021.9 hPa SW 1.6 km/h 3.2 km/h 44% 0 mm
17:45 25.9 °C 12.7 °C 1021.9 hPa NW 1.6 km/h 4.8 km/h 44% 0 mm
17:50 25.6 °C 12.7 °C 1021.9 hPa SE 3.2 km/h 4.8 km/h 45% 0 mm
17:55 25.6 °C 11.7 °C 1021.9 hPa SSE 4.8 km/h 4.8 km/h 42% 0 mm
18:00 25.8 °C 11.9 °C 1021.9 hPa South 3.2 km/h 4.8 km/h 42% 0 mm
18:05 26.4 °C 11.7 °C 1021.9 hPa South 1.6 km/h 3.2 km/h 40% 0 mm
18:10 25.9 °C 11.6 °C 1021.9 hPa NE 3.2 km/h 4.8 km/h 41% 0 mm
18:15 26 °C 11.7 °C 1021.9 hPa SSW 1.6 km/h 4.8 km/h 41% 0 mm
18:20 25.8 °C 11.9 °C 1021.9 hPa South 4.8 km/h 4.8 km/h 42% 0 mm
18:25 25.8 °C 11.6 °C 1021.9 hPa ENE 3.2 km/h 4.8 km/h 41% 0 mm
18:30 25.1 °C 11.6 °C 1021.9 hPa North 4.8 km/h 6.4 km/h 43% 0 mm
18:35 26.2 °C 11.9 °C 1021.9 hPa East 3.2 km/h 4.8 km/h 41% 0 mm
18:40 25.6 °C 11.7 °C 1021.9 hPa SSW 3.2 km/h 4.8 km/h 42% 0 mm
18:45 25.7 °C 11.4 °C 1022.2 hPa SSE 3.2 km/h 4.8 km/h 41% 0 mm
18:50 25.1 °C 11.9 °C 1021.9 hPa South 1.6 km/h 1.6 km/h 44% 0 mm
18:55 24.7 °C 11.6 °C 1021.9 hPa East 3.2 km/h 3.2 km/h 44% 0 mm
19:00 24.4 °C 11.7 °C 1021.9 hPa South 3.2 km/h 4.8 km/h 45% 0 mm
19:05 24.5 °C 12.1 °C 1021.9 hPa South 1.6 km/h 3.2 km/h 46% 0 mm
19:10 23.8 °C 11.8 °C 1021.9 hPa SSE 1.6 km/h 3.2 km/h 47% 0 mm
19:15 23 °C 12 °C 1021.9 hPa Calm   3.2 km/h 50% 0 mm
19:20 22.8 °C 11.8 °C 1021.9 hPa SSE 3.2 km/h 4.8 km/h 50% 0 mm
19:25 21.9 °C 11.9 °C 1022.2 hPa SSE 3.2 km/h 4.8 km/h 53% 0 mm
19:30 22.2 °C 11.6 °C 1022.2 hPa South 1.6 km/h 3.2 km/h 51% 0 mm
19:35 22.2 °C 11.8 °C 1022.2 hPa SW 1.6 km/h 4.8 km/h 52% 0 mm
19:40 22.1 °C 12 °C 1022.2 hPa Calm   3.2 km/h 53% 0 mm
19:45 21.6 °C 11.9 °C 1022.2 hPa SSE 1.6 km/h 1.6 km/h 54% 0 mm
19:52 21.5 °C 11.8 °C 1022.2 hPa NE 1.6 km/h 1.6 km/h 54% 0 mm
19:55 21.5 °C 11.8 °C 1022.2 hPa SE 1.6 km/h 1.6 km/h 54% 0 mm
20:00 21.4 °C 11.7 °C 1022.2 hPa Calm   1.6 km/h 54% 0 mm
20:05 21.3 °C 11.9 °C 1022.2 hPa Calm     55% 0 mm
20:10 21.1 °C 11.9 °C 1022.2 hPa Calm     56% 0 mm
20:15 20.8 °C 12 °C 1022.2 hPa NNW 1.6 km/h 1.6 km/h 57% 0 mm
20:20 20.9 °C 12.1 °C 1022.2 hPa Calm   1.6 km/h 57% 0 mm
20:25 20.7 °C 11.9 °C 1022.2 hPa SSE 1.6 km/h 3.2 km/h 57% 0 mm
20:30 20.6 °C 12.1 °C 1022.2 hPa ESE 1.6 km/h 1.6 km/h 58% 0 mm
20:35 20.4 °C 11.9 °C 1022.2 hPa SSE 1.6 km/h 1.6 km/h 58% 0 mm
20:40 20.4 °C 11.8 °C 1022.2 hPa SSE 1.6 km/h 1.6 km/h 58% 0 mm
20:45 20.3 °C 12 °C 1022.2 hPa Calm     59% 0 mm
20:50 20.2 °C 12.2 °C 1022.2 hPa Calm     60% 0 mm
20:55 20.2 °C 12.2 °C 1022.2 hPa Calm     60% 0 mm
21:00 20.1 °C 12.3 °C 1022.2 hPa Calm     61% 0 mm
21:05 20.1 °C 12.3 °C 1022.2 hPa Calm     61% 0 mm
21:10 20 °C 12.2 °C 1022.2 hPa Calm     61% 0 mm
21:15 19.9 °C 12.2 °C 1022.2 hPa Calm     61% 0 mm
21:20 19.8 °C 12.3 °C 1022.2 hPa Calm     62% 0 mm
High Park Village Arhives